createdAt,value
2017-08-20T17:52:25.684Z,1017.28
2017-08-20T17:53:06.221Z,1017.3
2017-08-20T17:53:46.771Z,1017.29
2017-08-20T17:54:27.302Z,1017.3
2017-08-20T17:55:07.844Z,1017.3
2017-08-20T17:55:48.398Z,1017.3
2017-08-20T17:56:28.935Z,1017.3
2017-08-20T17:57:09.486Z,1017.31
2017-08-20T17:57:50.014Z,1017.28
2017-08-20T17:58:30.544Z,1017.3
2017-08-20T17:59:11.081Z,1017.32
2017-08-20T17:59:51.613Z,1017.35
2017-08-20T18:00:32.147Z,1017.34
2017-08-20T18:01:12.692Z,1017.34
2017-08-20T18:01:53.231Z,1017.38
2017-08-20T18:02:33.771Z,1017.34
2017-08-20T18:03:14.311Z,1017.34
2017-08-20T18:03:54.870Z,1017.34
2017-08-20T18:04:35.411Z,1017.36
2017-08-20T18:05:15.947Z,1017.33
2017-08-20T18:05:56.484Z,1017.33
2017-08-20T18:06:37.016Z,1017.33
2017-08-20T18:07:17.564Z,1017.31
2017-08-20T18:07:58.099Z,1017.35
2017-08-20T18:08:38.651Z,1017.4
2017-08-20T18:09:19.189Z,1017.37
2017-08-20T18:09:59.727Z,1017.38
2017-08-20T18:10:40.267Z,1017.41
2017-08-20T18:11:20.802Z,1017.4
2017-08-20T18:12:01.342Z,1017.38
2017-08-20T18:12:41.882Z,1017.44
2017-08-20T18:13:22.433Z,1017.44
2017-08-20T18:14:02.978Z,1017.43
2017-08-20T18:14:43.508Z,1017.44
2017-08-20T18:15:24.045Z,1017.4
2017-08-20T18:16:04.588Z,1017.41
2017-08-20T18:16:45.129Z,1017.42
2017-08-20T18:17:25.674Z,1017.36
2017-08-20T18:18:06.214Z,1017.41
2017-08-20T18:18:46.749Z,1017.44
2017-08-20T18:19:27.303Z,1017.44
2017-08-20T18:20:07.836Z,1017.46
2017-08-20T18:20:48.401Z,1017.47
2017-08-20T18:21:28.940Z,1017.48
2017-08-20T18:22:09.529Z,1017.47
2017-08-20T18:22:50.017Z,1017.49
2017-08-20T18:23:30.558Z,1017.47
2017-08-20T18:24:11.150Z,1017.47
2017-08-20T18:24:51.687Z,1017.47
2017-08-20T18:25:32.298Z,1017.5
2017-08-20T18:26:13.029Z,1017.54
2017-08-20T18:26:53.697Z,1017.56
2017-08-20T18:27:34.220Z,1017.54
2017-08-20T18:28:14.757Z,1017.55
2017-08-20T18:28:55.620Z,1017.56
2017-08-20T18:29:36.313Z,1017.57
2017-08-20T18:30:16.930Z,1017.55
2017-08-20T18:30:57.464Z,1017.58
2017-08-20T18:31:38.013Z,1017.56
2017-08-20T18:32:19.455Z,1017.54
2017-08-20T18:33:00.240Z,1017.56
2017-08-20T18:33:41.441Z,1017.59
2017-08-20T18:34:22.230Z,1017.54
2017-08-20T18:35:02.850Z,1017.54
2017-08-20T18:35:43.742Z,1017.56
2017-08-20T18:36:24.467Z,1017.56
2017-08-20T18:37:06.515Z,1017.6
2017-08-20T18:37:47.805Z,1017.59
2017-08-20T18:38:28.338Z,1017.64
2017-08-20T18:39:09.093Z,1017.66
2017-08-20T18:39:49.771Z,1017.72
2017-08-20T18:40:30.537Z,1017.76
2017-08-20T18:41:11.918Z,1017.78
2017-08-20T18:41:52.652Z,1017.78
2017-08-20T18:42:33.197Z,1017.85
2017-08-20T18:43:13.850Z,1017.81
2017-08-20T18:43:54.581Z,1017.8
2017-08-20T18:44:35.239Z,1017.83
2017-08-20T18:45:16.167Z,1017.84
2017-08-20T18:45:57.619Z,1017.85
2017-08-20T18:46:38.396Z,1017.86
2017-08-20T18:47:19.110Z,1017.87
2017-08-20T18:47:59.640Z,1017.9
2017-08-20T18:48:40.306Z,1017.9
2017-08-20T18:49:20.899Z,1017.89
2017-08-20T18:50:01.440Z,1017.94
2017-08-20T18:50:41.969Z,1017.97
2017-08-20T18:51:22.492Z,1017.98
2017-08-20T18:52:03.033Z,1017.98
2017-08-20T18:52:43.577Z,1017.95
2017-08-20T18:53:24.387Z,1017.95
2017-08-20T18:54:05.004Z,1017.97
2017-08-20T18:54:45.542Z,1017.93
2017-08-20T18:55:26.085Z,1017.98
2017-08-20T18:56:06.608Z,1017.95
2017-08-20T18:56:47.152Z,1017.99
2017-08-20T18:57:27.682Z,1017.96
2017-08-20T18:58:08.219Z,1017.98
2017-08-20T18:58:48.753Z,1017.98
2017-08-20T18:59:29.295Z,1018
2017-08-20T19:00:09.844Z,1017.99
2017-08-20T19:00:50.386Z,1018
2017-08-20T19:01:30.926Z,1017.99
2017-08-20T19:02:11.468Z,1018.04
2017-08-20T19:02:52.008Z,1018.02
2017-08-20T19:03:32.545Z,1018.03
2017-08-20T19:04:13.087Z,1018.05
2017-08-20T19:04:53.627Z,1018.04
2017-08-20T19:05:34.177Z,1018.03
2017-08-20T19:06:14.722Z,1018.03
2017-08-20T19:06:55.254Z,1018.08
2017-08-20T19:07:35.794Z,1018.08
2017-08-20T19:08:16.341Z,1018.09
2017-08-20T19:08:57.003Z,1018.1
2017-08-20T19:09:37.627Z,1018.11
2017-08-20T19:10:18.204Z,1018.11
2017-08-20T19:10:58.737Z,1018.12
2017-08-20T19:11:39.272Z,1018.14
2017-08-20T19:12:19.794Z,1018.11
2017-08-20T19:13:00.329Z,1018.15
2017-08-20T19:13:40.872Z,1018.15
2017-08-20T19:14:21.412Z,1018.15
2017-08-20T19:15:01.924Z,1018.15
2017-08-20T19:15:42.462Z,1018.17
2017-08-20T19:16:23.010Z,1018.17
2017-08-20T19:17:03.542Z,1018.15
2017-08-20T19:17:44.067Z,1018.13
2017-08-20T19:18:24.609Z,1018.09
2017-08-20T19:19:05.152Z,1018.12
2017-08-20T19:19:45.690Z,1018.17
2017-08-20T19:20:26.235Z,1018.21
2017-08-20T19:21:06.776Z,1018.14
2017-08-20T19:21:47.383Z,1018.18
2017-08-20T19:22:27.926Z,1018.22
2017-08-20T19:23:08.467Z,1018.23
2017-08-20T19:23:49.014Z,1018.25
2017-08-20T19:24:29.557Z,1018.29
2017-08-20T19:25:10.121Z,1018.27
2017-08-20T19:25:50.667Z,1018.29
2017-08-20T19:26:31.208Z,1018.34
2017-08-20T19:27:11.745Z,1018.3
2017-08-20T19:27:52.289Z,1018.32
2017-08-20T19:28:32.825Z,1018.3
2017-08-20T19:29:13.360Z,1018.3
2017-08-20T19:29:53.894Z,1018.29
2017-08-20T19:30:34.434Z,1018.29
2017-08-20T19:31:14.971Z,1018.24
2017-08-20T19:31:55.502Z,1018.25
2017-08-20T19:32:36.031Z,1018.27
2017-08-20T19:33:16.565Z,1018.27
2017-08-20T19:33:57.101Z,1018.3
2017-08-20T19:34:37.681Z,1018.29
2017-08-20T19:35:18.218Z,1018.3
2017-08-20T19:35:58.751Z,1018.32
2017-08-20T19:36:39.285Z,1018.3
2017-08-20T19:37:19.836Z,1018.32
2017-08-20T19:38:00.380Z,1018.29
2017-08-20T19:38:40.910Z,1018.28
2017-08-20T19:39:21.523Z,1018.28
2017-08-20T19:40:02.053Z,1018.3
2017-08-20T19:40:42.592Z,1018.27
2017-08-20T19:41:23.131Z,1018.32
2017-08-20T19:42:03.670Z,1018.29
2017-08-20T19:42:44.211Z,1018.29
2017-08-20T19:43:24.750Z,1018.29
2017-08-20T19:44:05.277Z,1018.28
2017-08-20T19:44:45.807Z,1018.32
2017-08-20T19:45:26.343Z,1018.31
2017-08-20T19:46:06.888Z,1018.3
2017-08-20T19:46:47.420Z,1018.27
2017-08-20T19:47:27.960Z,1018.29
2017-08-20T19:48:08.497Z,1018.28
2017-08-20T19:48:49.031Z,1018.28
2017-08-20T19:49:29.562Z,1018.31
2017-08-20T19:50:10.099Z,1018.35
2017-08-20T19:50:50.641Z,1018.36
2017-08-20T19:51:31.178Z,1018.38
2017-08-20T19:52:11.711Z,1018.39
2017-08-20T19:52:52.235Z,1018.38
2017-08-20T19:53:32.769Z,1018.43
2017-08-20T19:54:13.312Z,1018.41
2017-08-20T19:54:53.846Z,1018.43
2017-08-20T19:55:34.439Z,1018.45
2017-08-20T19:56:14.967Z,1018.5
2017-08-20T19:56:55.503Z,1018.48
2017-08-20T19:57:36.038Z,1018.48
2017-08-20T19:58:16.617Z,1018.52
2017-08-20T19:58:57.147Z,1018.51
2017-08-20T19:59:37.680Z,1018.52
2017-08-20T20:00:18.218Z,1018.54
2017-08-20T20:00:58.754Z,1018.56
2017-08-20T20:01:39.291Z,1018.53
2017-08-20T20:02:19.825Z,1018.54
2017-08-20T20:03:00.368Z,1018.54
2017-08-20T20:03:40.904Z,1018.56
2017-08-20T20:04:21.443Z,1018.56
2017-08-20T20:05:01.982Z,1018.57
2017-08-20T20:05:42.523Z,1018.56
2017-08-20T20:06:23.046Z,1018.59
2017-08-20T20:07:03.583Z,1018.54
2017-08-20T20:07:44.112Z,1018.54
2017-08-20T20:08:24.657Z,1018.55
2017-08-20T20:09:05.195Z,1018.53
2017-08-20T20:09:45.729Z,1018.53
2017-08-20T20:10:26.273Z,1018.54
2017-08-20T20:11:06.802Z,1018.53
2017-08-20T20:11:47.336Z,1018.57
2017-08-20T20:12:27.882Z,1018.54
2017-08-20T20:13:08.423Z,1018.59
2017-08-20T20:13:48.963Z,1018.58
2017-08-20T20:14:29.501Z,1018.58
2017-08-20T20:15:10.086Z,1018.6
2017-08-20T20:15:50.622Z,1018.62
2017-08-20T20:16:31.171Z,1018.62
2017-08-20T20:17:11.704Z,1018.58
2017-08-20T20:17:52.243Z,1018.58
2017-08-20T20:18:32.773Z,1018.56
2017-08-20T20:19:13.309Z,1018.56
2017-08-20T20:19:53.863Z,1018.54
2017-08-20T20:20:34.375Z,1018.5
2017-08-20T20:21:14.916Z,1018.54
2017-08-20T20:21:55.457Z,1018.48
2017-08-20T20:22:35.997Z,1018.51
2017-08-20T20:23:16.536Z,1018.46
2017-08-20T20:23:57.076Z,1018.46
2017-08-20T20:24:37.613Z,1018.48
2017-08-20T20:25:18.145Z,1018.5
2017-08-20T20:25:58.688Z,1018.51
2017-08-20T20:26:39.228Z,1018.54
2017-08-20T20:27:19.767Z,1018.5
2017-08-20T20:28:00.303Z,1018.53
2017-08-20T20:28:40.842Z,1018.5
2017-08-20T20:29:21.381Z,1018.51
2017-08-20T20:30:01.918Z,1018.48
2017-08-20T20:30:42.449Z,1018.49
2017-08-20T20:31:24.128Z,1018.47
2017-08-20T20:32:04.666Z,1018.51
2017-08-20T20:32:45.212Z,1018.51
2017-08-20T20:33:25.749Z,1018.49
2017-08-20T20:34:06.276Z,1018.48
2017-08-20T20:34:46.797Z,1018.51
2017-08-20T20:35:27.333Z,1018.51
2017-08-20T20:36:07.880Z,1018.47
2017-08-20T20:36:48.394Z,1018.51
2017-08-20T20:37:28.960Z,1018.46
2017-08-20T20:38:09.563Z,1018.5
2017-08-20T20:38:50.107Z,1018.51
2017-08-20T20:39:30.650Z,1018.51
2017-08-20T20:40:11.268Z,1018.51
2017-08-20T20:40:51.805Z,1018.53
2017-08-20T20:41:32.343Z,1018.52
2017-08-20T20:42:12.887Z,1018.48
2017-08-20T20:42:53.419Z,1018.5
2017-08-20T20:43:33.960Z,1018.46
2017-08-20T20:44:14.504Z,1018.48
2017-08-20T20:44:55.042Z,1018.5
2017-08-20T20:45:35.586Z,1018.53
2017-08-20T20:46:16.122Z,1018.5
2017-08-20T20:46:56.659Z,1018.51
2017-08-20T20:47:37.201Z,1018.47
2017-08-20T20:48:17.797Z,1018.46
2017-08-20T20:48:58.423Z,1018.43
2017-08-20T20:49:38.918Z,1018.45
2017-08-20T20:50:19.450Z,1018.43
2017-08-20T20:51:00.002Z,1018.39
2017-08-20T20:51:40.532Z,1018.36
2017-08-20T20:52:21.077Z,1018.34
2017-08-20T20:53:01.620Z,1018.38
2017-08-20T20:53:42.150Z,1018.38
2017-08-20T20:54:22.689Z,1018.36
2017-08-20T20:55:03.224Z,1018.41
2017-08-20T20:55:43.761Z,1018.43
2017-08-20T20:56:24.314Z,1018.41
2017-08-20T20:57:04.841Z,1018.42
2017-08-20T20:57:45.396Z,1018.43
2017-08-20T20:58:25.928Z,1018.46
2017-08-20T20:59:06.468Z,1018.46
2017-08-20T20:59:47.006Z,1018.5
2017-08-20T21:00:27.555Z,1018.47
2017-08-20T21:01:08.088Z,1018.47
2017-08-20T21:01:48.658Z,1018.49
2017-08-20T21:02:29.151Z,1018.47
2017-08-20T21:03:09.692Z,1018.51
2017-08-20T21:03:50.230Z,1018.53
2017-08-20T21:04:30.773Z,1018.48
2017-08-20T21:05:11.304Z,1018.56
2017-08-20T21:05:51.836Z,1018.56
2017-08-20T21:06:32.374Z,1018.58
2017-08-20T21:07:12.903Z,1018.57
2017-08-20T21:07:53.445Z,1018.58
2017-08-20T21:08:33.984Z,1018.57
2017-08-20T21:09:14.522Z,1018.59
2017-08-20T21:09:55.065Z,1018.63
2017-08-20T21:10:35.605Z,1018.62
2017-08-20T21:11:16.138Z,1018.64
2017-08-20T21:11:56.671Z,1018.71
2017-08-20T21:12:37.211Z,1018.66
2017-08-20T21:13:17.750Z,1018.65
2017-08-20T21:13:58.293Z,1018.68
2017-08-20T21:14:38.839Z,1018.66
2017-08-20T21:15:19.378Z,1018.63
2017-08-20T21:15:59.924Z,1018.62
2017-08-20T21:16:40.462Z,1018.63
2017-08-20T21:17:20.995Z,1018.65
2017-08-20T21:18:01.525Z,1018.59
2017-08-20T21:18:42.053Z,1018.63
2017-08-20T21:19:22.587Z,1018.64
2017-08-20T21:20:03.127Z,1018.62
2017-08-20T21:20:43.657Z,1018.61
2017-08-20T21:21:24.188Z,1018.61
2017-08-20T21:22:04.726Z,1018.61
2017-08-20T21:22:45.266Z,1018.61
2017-08-20T21:23:25.809Z,1018.62
2017-08-20T21:24:06.368Z,1018.62
2017-08-20T21:24:46.879Z,1018.6
2017-08-20T21:25:27.413Z,1018.58
2017-08-20T21:26:07.949Z,1018.53
2017-08-20T21:26:48.475Z,1018.57
2017-08-20T21:27:29.016Z,1018.53
2017-08-20T21:28:09.556Z,1018.51
2017-08-20T21:28:50.098Z,1018.5
2017-08-20T21:29:30.639Z,1018.47
2017-08-20T21:30:11.169Z,1018.46
2017-08-20T21:30:51.702Z,1018.46
2017-08-20T21:31:32.239Z,1018.52
2017-08-20T21:32:12.775Z,1018.56
2017-08-20T21:32:53.315Z,1018.55
2017-08-20T21:33:33.860Z,1018.48
2017-08-20T21:34:14.393Z,1018.47
2017-08-20T21:34:54.914Z,1018.44
2017-08-20T21:35:35.458Z,1018.4
2017-08-20T21:36:15.992Z,1018.45
2017-08-20T21:36:56.531Z,1018.47
2017-08-20T21:37:37.070Z,1018.45
2017-08-20T21:38:17.623Z,1018.47
2017-08-20T21:38:58.158Z,1018.48
2017-08-20T21:39:38.700Z,1018.52
2017-08-20T21:40:19.242Z,1018.53
2017-08-20T21:40:59.768Z,1018.55
2017-08-20T21:41:40.303Z,1018.53
2017-08-20T21:42:20.844Z,1018.57
2017-08-20T21:43:01.375Z,1018.59
2017-08-20T21:43:41.914Z,1018.6
2017-08-20T21:44:22.455Z,1018.56
2017-08-20T21:45:02.993Z,1018.57
2017-08-20T21:45:43.537Z,1018.56
2017-08-20T21:46:24.075Z,1018.53
2017-08-20T21:47:04.612Z,1018.5
2017-08-20T21:47:45.148Z,1018.48
2017-08-20T21:48:25.684Z,1018.49
2017-08-20T21:49:06.225Z,1018.5
2017-08-20T21:49:46.768Z,1018.51
2017-08-20T21:50:27.312Z,1018.51
2017-08-20T21:51:07.852Z,1018.53
2017-08-20T21:51:48.371Z,1018.5
2017-08-20T21:52:28.907Z,1018.44
2017-08-20T21:53:09.426Z,1018.46
2017-08-20T21:53:49.962Z,1018.4
2017-08-20T21:54:30.497Z,1018.36
2017-08-20T21:55:12.725Z,1018.37
2017-08-20T21:55:53.263Z,1018.38
2017-08-20T21:56:33.804Z,1018.37
2017-08-20T21:57:14.346Z,1018.37
2017-08-20T21:57:54.870Z,1018.39
2017-08-20T21:58:35.415Z,1018.38
2017-08-20T21:59:15.952Z,1018.35
2017-08-20T21:59:56.492Z,1018.36
2017-08-20T22:00:37.031Z,1018.37
2017-08-20T22:01:17.571Z,1018.37
2017-08-20T22:01:58.111Z,1018.38
2017-08-20T22:02:38.649Z,1018.37
2017-08-20T22:03:19.184Z,1018.46
2017-08-20T22:03:59.720Z,1018.45
2017-08-20T22:04:40.275Z,1018.49
2017-08-20T22:05:20.787Z,1018.55
2017-08-20T22:06:01.325Z,1018.55
2017-08-20T22:06:41.860Z,1018.54
2017-08-20T22:07:22.402Z,1018.54
2017-08-20T22:08:02.942Z,1018.51
2017-08-20T22:08:43.481Z,1018.49
2017-08-20T22:09:24.021Z,1018.43
2017-08-20T22:10:04.559Z,1018.44
2017-08-20T22:10:45.101Z,1018.34
2017-08-20T22:11:25.641Z,1018.35
2017-08-20T22:12:06.178Z,1018.33
2017-08-20T22:12:46.717Z,1018.32
2017-08-20T22:13:27.258Z,1018.34
2017-08-20T22:14:07.783Z,1018.34
2017-08-20T22:14:48.316Z,1018.41
2017-08-20T22:15:28.847Z,1018.43
2017-08-20T22:16:09.384Z,1018.45
2017-08-20T22:16:49.923Z,1018.5
2017-08-20T22:17:30.464Z,1018.53
2017-08-20T22:18:10.998Z,1018.54
2017-08-20T22:18:51.536Z,1018.52
2017-08-20T22:19:32.072Z,1018.55
2017-08-20T22:20:12.600Z,1018.55
2017-08-20T22:20:53.136Z,1018.55
2017-08-20T22:21:33.675Z,1018.52
2017-08-20T22:22:14.213Z,1018.5
2017-08-20T22:22:54.753Z,1018.46
2017-08-20T22:23:35.280Z,1018.44
2017-08-20T22:24:15.821Z,1018.4
2017-08-20T22:24:56.361Z,1018.36
2017-08-20T22:25:36.908Z,1018.39
2017-08-20T22:26:17.441Z,1018.39
2017-08-20T22:26:57.981Z,1018.39
2017-08-20T22:27:38.522Z,1018.38
2017-08-20T22:28:19.059Z,1018.39
2017-08-20T22:28:59.597Z,1018.41
2017-08-20T22:29:40.129Z,1018.37
2017-08-20T22:30:20.676Z,1018.35
2017-08-20T22:31:01.207Z,1018.34
2017-08-20T22:31:41.745Z,1018.36
2017-08-20T22:32:22.285Z,1018.35
2017-08-20T22:33:02.817Z,1018.37
2017-08-20T22:33:43.348Z,1018.37
2017-08-20T22:34:23.887Z,1018.4
2017-08-20T22:35:04.419Z,1018.44
2017-08-20T22:35:44.960Z,1018.47
2017-08-20T22:36:25.500Z,1018.46
2017-08-20T22:37:06.038Z,1018.5
2017-08-20T22:37:46.583Z,1018.5
2017-08-20T22:38:27.105Z,1018.52
2017-08-20T22:39:07.642Z,1018.49
2017-08-20T22:39:48.185Z,1018.52
2017-08-20T22:40:28.729Z,1018.47
2017-08-20T22:41:09.267Z,1018.46
2017-08-20T22:41:49.804Z,1018.4
2017-08-20T22:42:30.333Z,1018.4
2017-08-20T22:43:10.875Z,1018.35
2017-08-20T22:43:51.409Z,1018.37
2017-08-20T22:44:31.941Z,1018.31
2017-08-20T22:45:12.487Z,1018.38
2017-08-20T22:45:53.017Z,1018.38
2017-08-20T22:46:33.551Z,1018.41
2017-08-20T22:47:14.089Z,1018.4
2017-08-20T22:47:54.627Z,1018.37
2017-08-20T22:48:35.163Z,1018.39
2017-08-20T22:49:15.694Z,1018.4
2017-08-20T22:49:56.236Z,1018.38
2017-08-20T22:50:36.774Z,1018.38
2017-08-20T22:51:17.312Z,1018.39
2017-08-20T22:51:57.851Z,1018.42
2017-08-20T22:52:38.381Z,1018.41
2017-08-20T22:53:18.916Z,1018.44
2017-08-20T22:53:59.483Z,1018.42
2017-08-20T22:54:40.013Z,1018.41
2017-08-20T22:55:20.549Z,1018.4
2017-08-20T22:56:01.092Z,1018.4
2017-08-20T22:56:41.629Z,1018.37
2017-08-20T22:57:22.162Z,1018.42
2017-08-20T22:58:02.706Z,1018.41
2017-08-20T22:58:43.235Z,1018.41
2017-08-20T22:59:23.771Z,1018.42
2017-08-20T23:00:04.329Z,1018.42
2017-08-20T23:00:44.842Z,1018.41
2017-08-20T23:01:25.384Z,1018.43
2017-08-20T23:02:05.965Z,1018.42
2017-08-20T23:02:46.488Z,1018.4
2017-08-20T23:03:27.038Z,1018.38
2017-08-20T23:04:07.574Z,1018.37
2017-08-20T23:04:48.108Z,1018.34
2017-08-20T23:05:28.631Z,1018.3
2017-08-20T23:06:09.161Z,1018.27
2017-08-20T23:06:49.699Z,1018.3
2017-08-20T23:07:30.238Z,1018.29
2017-08-20T23:08:10.777Z,1018.29
2017-08-20T23:08:51.314Z,1018.29
2017-08-20T23:09:31.851Z,1018.3
2017-08-20T23:10:12.384Z,1018.31
2017-08-20T23:10:52.924Z,1018.32
2017-08-20T23:11:33.462Z,1018.29
2017-08-20T23:12:14.005Z,1018.27
2017-08-20T23:12:54.550Z,1018.24
2017-08-20T23:13:35.094Z,1018.23
2017-08-20T23:14:15.636Z,1018.24
2017-08-20T23:14:56.178Z,1018.24
2017-08-20T23:15:36.715Z,1018.24
2017-08-20T23:16:17.261Z,1018.25
2017-08-20T23:16:57.789Z,1018.28
2017-08-20T23:17:38.319Z,1018.29
2017-08-20T23:18:18.859Z,1018.29
2017-08-20T23:18:59.400Z,1018.31
2017-08-20T23:19:39.935Z,1018.26
2017-08-20T23:20:20.478Z,1018.25
2017-08-20T23:21:01.018Z,1018.22
2017-08-20T23:21:41.559Z,1018.2
2017-08-20T23:22:22.092Z,1018.2
2017-08-20T23:23:02.630Z,1018.18
2017-08-20T23:23:43.166Z,1018.14
2017-08-20T23:24:23.706Z,1018.16
2017-08-20T23:25:04.246Z,1018.13
2017-08-20T23:25:44.785Z,1018.12
2017-08-20T23:26:25.329Z,1018.1
2017-08-20T23:27:05.866Z,1018.08
2017-08-20T23:27:46.397Z,1018.13
2017-08-20T23:28:26.928Z,1018.12
2017-08-20T23:29:07.468Z,1018.15
2017-08-20T23:29:48.013Z,1018.15
2017-08-20T23:30:28.558Z,1018.14
2017-08-20T23:31:09.098Z,1018.12
2017-08-20T23:31:49.638Z,1018.12
2017-08-20T23:32:30.171Z,1018.13
2017-08-20T23:33:10.704Z,1018.12
2017-08-20T23:33:51.233Z,1018.11
2017-08-20T23:34:31.773Z,1018.15
2017-08-20T23:35:12.312Z,1018.11
2017-08-20T23:35:52.851Z,1018.11
2017-08-20T23:36:33.394Z,1018.11
2017-08-20T23:37:13.934Z,1018.04
2017-08-20T23:37:54.472Z,1018.03
2017-08-20T23:38:35.010Z,1018.01
2017-08-20T23:39:15.554Z,1018
2017-08-20T23:39:56.094Z,1018.06
2017-08-20T23:40:36.628Z,1018.04
2017-08-20T23:41:17.169Z,1018.06
2017-08-20T23:41:57.711Z,1018.03
2017-08-20T23:42:38.251Z,1018.04
2017-08-20T23:43:18.789Z,1018.02
2017-08-20T23:43:59.331Z,1018.06
2017-08-20T23:44:39.871Z,1018.09
2017-08-20T23:45:20.408Z,1018.13
2017-08-20T23:46:00.942Z,1018.16
2017-08-20T23:46:41.484Z,1018.15
2017-08-20T23:47:22.026Z,1018.19
2017-08-20T23:48:02.570Z,1018.17
2017-08-20T23:48:43.106Z,1018.21
2017-08-20T23:49:23.645Z,1018.18
2017-08-20T23:50:04.176Z,1018.14
2017-08-20T23:50:44.708Z,1018.14
2017-08-20T23:51:25.250Z,1018.13
2017-08-20T23:52:05.782Z,1018.09
2017-08-20T23:52:46.328Z,1018.03
2017-08-20T23:53:26.868Z,1017.98
2017-08-20T23:54:07.407Z,1017.91
2017-08-20T23:54:47.949Z,1017.86
2017-08-20T23:55:28.481Z,1017.81
2017-08-20T23:56:09.038Z,1017.82
2017-08-20T23:56:49.558Z,1017.81
2017-08-20T23:57:30.095Z,1017.87
2017-08-20T23:58:10.637Z,1017.9
2017-08-20T23:58:51.172Z,1017.95
2017-08-20T23:59:31.712Z,1018
